sensor_id;sensor_type;location;lat;lon;timestamp;temperature;humidity
12111;DHT22;6119;52.372;8.990;2024-02-26T00:02:23;4.00;99.90
12111;DHT22;6119;52.372;8.990;2024-02-26T00:05:10;4.00;99.90
12111;DHT22;6119;52.372;8.990;2024-02-26T00:07:57;4.10;99.90
12111;DHT22;6119;52.372;8.990;2024-02-26T00:10:49;4.10;99.90
12111;DHT22;6119;52.372;8.990;2024-02-26T00:13:36;4.20;99.90
12111;DHT22;6119;52.372;8.990;2024-02-26T00:16:23;4.30;99.90
12111;DHT22;6119;52.372;8.990;2024-02-26T00:19:09;4.30;99.90
12111;DHT22;6119;52.372;8.990;2024-02-26T00:21:56;4.30;99.90
12111;DHT22;6119;52.372;8.990;2024-02-26T00:24:43;4.30;99.90
12111;DHT22;6119;52.372;8.990;2024-02-26T00:27:31;4.30;99.90
12111;DHT22;6119;52.372;8.990;2024-02-26T00:30:17;4.40;99.90
12111;DHT22;6119;52.372;8.990;2024-02-26T00:33:04;4.30;99.90
12111;DHT22;6119;52.372;8.990;2024-02-26T00:35:51;4.30;99.90
12111;DHT22;6119;52.372;8.990;2024-02-26T00:38:38;4.20;99.90
12111;DHT22;6119;52.372;8.990;2024-02-26T00:41:26;4.20;99.90
12111;DHT22;6119;52.372;8.990;2024-02-26T00:44:14;4.20;99.90
12111;DHT22;6119;52.372;8.990;2024-02-26T00:47:01;4.10;99.90
12111;DHT22;6119;52.372;8.990;2024-02-26T00:49:47;4.00;99.90
12111;DHT22;6119;52.372;8.990;2024-02-26T00:52:34;4.00;99.90
12111;DHT22;6119;52.372;8.990;2024-02-26T00:55:21;4.00;99.90
12111;DHT22;6119;52.372;8.990;2024-02-26T00:58:08;3.90;99.90
12111;DHT22;6119;52.372;8.990;2024-02-26T01:00:57;3.90;99.90
12111;DHT22;6119;52.372;8.990;2024-02-26T01:03:43;4.00;99.90
12111;DHT22;6119;52.372;8.990;2024-02-26T01:06:30;4.00;99.90
12111;DHT22;6119;52.372;8.990;2024-02-26T01:09:17;4.00;99.90
12111;DHT22;6119;52.372;8.990;2024-02-26T01:12:04;4.00;99.90
12111;DHT22;6119;52.372;8.990;2024-02-26T01:14:52;4.00;99.90
12111;DHT22;6119;52.372;8.990;2024-02-26T01:17:40;4.10;99.90
12111;DHT22;6119;52.372;8.990;2024-02-26T01:20:27;4.10;99.90
12111;DHT22;6119;52.372;8.990;2024-02-26T01:23:14;4.10;99.90
12111;DHT22;6119;52.372;8.990;2024-02-26T01:26:01;4.20;99.90
12111;DHT22;6119;52.372;8.990;2024-02-26T01:28:48;4.20;99.90
12111;DHT22;6119;52.372;8.990;2024-02-26T01:31:35;4.20;99.90
12111;DHT22;6119;52.372;8.990;2024-02-26T01:34:23;4.20;99.90
12111;DHT22;6119;52.372;8.990;2024-02-26T01:37:10;4.30;99.90
12111;DHT22;6119;52.372;8.990;2024-02-26T01:39:56;4.20;99.90
12111;DHT22;6119;52.372;8.990;2024-02-26T01:42:43;4.20;99.90
12111;DHT22;6119;52.372;8.990;2024-02-26T01:45:30;4.30;99.90
12111;DHT22;6119;52.372;8.990;2024-02-26T01:48:17;4.30;99.90
12111;DHT22;6119;52.372;8.990;2024-02-26T01:51:06;4.30;99.90
12111;DHT22;6119;52.372;8.990;2024-02-26T01:53:53;4.30;99.90
12111;DHT22;6119;52.372;8.990;2024-02-26T01:56:40;4.30;99.90
12111;DHT22;6119;52.372;8.990;2024-02-26T01:59:28;4.30;99.90
12111;DHT22;6119;52.372;8.990;2024-02-26T02:02:15;4.20;99.90
12111;DHT22;6119;52.372;8.990;2024-02-26T02:05:03;4.30;99.90
12111;DHT22;6119;52.372;8.990;2024-02-26T02:07:51;4.30;99.90
12111;DHT22;6119;52.372;8.990;2024-02-26T02:10:38;4.30;99.90
12111;DHT22;6119;52.372;8.990;2024-02-26T02:13:25;4.20;99.90
12111;DHT22;6119;52.372;8.990;2024-02-26T02:16:12;4.30;99.90
12111;DHT22;6119;52.372;8.990;2024-02-26T02:18:59;4.30;99.90
12111;DHT22;6119;52.372;8.990;2024-02-26T02:21:47;4.30;99.90
12111;DHT22;6119;52.372;8.990;2024-02-26T02:24:34;4.30;99.90
12111;DHT22;6119;52.372;8.990;2024-02-26T02:27:21;4.30;99.90
12111;DHT22;6119;52.372;8.990;2024-02-26T02:30:08;4.40;99.90
12111;DHT22;6119;52.372;8.990;2024-02-26T02:32:57;4.30;99.90
12111;DHT22;6119;52.372;8.990;2024-02-26T02:35:44;4.30;99.90
12111;DHT22;6119;52.372;8.990;2024-02-26T02:38:35;4.30;99.90
12111;DHT22;6119;52.372;8.990;2024-02-26T02:41:22;4.30;99.90
12111;DHT22;6119;52.372;8.990;2024-02-26T02:44:09;4.30;99.90
12111;DHT22;6119;52.372;8.990;2024-02-26T02:46:55;4.30;99.90
12111;DHT22;6119;52.372;8.990;2024-02-26T02:49:42;4.30;99.90
12111;DHT22;6119;52.372;8.990;2024-02-26T02:52:28;4.30;99.90
12111;DHT22;6119;52.372;8.990;2024-02-26T02:55:16;4.30;99.90
12111;DHT22;6119;52.372;8.990;2024-02-26T02:58:03;4.20;99.90
12111;DHT22;6119;52.372;8.990;2024-02-26T03:00:50;4.30;99.90
12111;DHT22;6119;52.372;8.990;2024-02-26T03:03:37;4.30;99.90
12111;DHT22;6119;52.372;8.990;2024-02-26T03:06:23;4.40;99.90
12111;DHT22;6119;52.372;8.990;2024-02-26T03:09:12;4.40;99.90
12111;DHT22;6119;52.372;8.990;2024-02-26T03:12:00;4.40;99.90
12111;DHT22;6119;52.372;8.990;2024-02-26T03:14:47;4.40;99.90
12111;DHT22;6119;52.372;8.990;2024-02-26T03:17:34;4.40;99.90
12111;DHT22;6119;52.372;8.990;2024-02-26T03:20:20;4.40;99.90
12111;DHT22;6119;52.372;8.990;2024-02-26T03:23:07;4.50;99.90
12111;DHT22;6119;52.372;8.990;2024-02-26T03:25:57;4.50;99.90
12111;DHT22;6119;52.372;8.990;2024-02-26T03:28:46;4.50;99.90
12111;DHT22;6119;52.372;8.990;2024-02-26T03:31:33;4.50;99.90
12111;DHT22;6119;52.372;8.990;2024-02-26T03:34:19;4.50;99.90
12111;DHT22;6119;52.372;8.990;2024-02-26T03:37:06;4.50;99.90
12111;DHT22;6119;52.372;8.990;2024-02-26T03:39:55;4.50;99.90
12111;DHT22;6119;52.372;8.990;2024-02-26T03:42:43;4.60;99.90
12111;DHT22;6119;52.372;8.990;2024-02-26T03:45:31;4.60;99.90
12111;DHT22;6119;52.372;8.990;2024-02-26T03:48:17;4.60;99.90
12111;DHT22;6119;52.372;8.990;2024-02-26T03:51:04;4.60;99.90
12111;DHT22;6119;52.372;8.990;2024-02-26T03:53:51;4.60;99.90
12111;DHT22;6119;52.372;8.990;2024-02-26T03:56:38;4.60;99.90
12111;DHT22;6119;52.372;8.990;2024-02-26T03:59:25;4.70;99.90
12111;DHT22;6119;52.372;8.990;2024-02-26T04:02:13;4.60;99.90
12111;DHT22;6119;52.372;8.990;2024-02-26T04:05:00;4.60;99.90
12111;DHT22;6119;52.372;8.990;2024-02-26T04:07:47;4.60;99.90
12111;DHT22;6119;52.372;8.990;2024-02-26T04:10:33;4.60;99.90
12111;DHT22;6119;52.372;8.990;2024-02-26T04:13:23;4.60;99.90
12111;DHT22;6119;52.372;8.990;2024-02-26T04:16:10;4.70;99.90
12111;DHT22;6119;52.372;8.990;2024-02-26T04:18:58;4.70;99.90
12111;DHT22;6119;52.372;8.990;2024-02-26T04:21:45;4.70;99.90
12111;DHT22;6119;52.372;8.990;2024-02-26T04:24:32;4.70;99.90
12111;DHT22;6119;52.372;8.990;2024-02-26T04:27:19;4.70;99.90
12111;DHT22;6119;52.372;8.990;2024-02-26T04:30:07;4.60;99.90
12111;DHT22;6119;52.372;8.990;2024-02-26T04:32:54;4.70;99.90
12111;DHT22;6119;52.372;8.990;2024-02-26T04:35:42;4.70;99.90
12111;DHT22;6119;52.372;8.990;2024-02-26T04:38:29;4.70;99.90
12111;DHT22;6119;52.372;8.990;2024-02-26T04:41:15;4.70;99.90
12111;DHT22;6119;52.372;8.990;2024-02-26T04:44:02;4.60;99.90
12111;DHT22;6119;52.372;8.990;2024-02-26T04:46:48;4.60;99.90
12111;DHT22;6119;52.372;8.990;2024-02-26T04:49:35;4.60;99.90
12111;DHT22;6119;52.372;8.990;2024-02-26T04:52:24;4.70;99.90
12111;DHT22;6119;52.372;8.990;2024-02-26T04:55:11;4.70;99.90
12111;DHT22;6119;52.372;8.990;2024-02-26T04:57:57;4.60;99.90
12111;DHT22;6119;52.372;8.990;2024-02-26T05:00:44;4.70;99.90
12111;DHT22;6119;52.372;8.990;2024-02-26T05:03:31;4.70;99.90
12111;DHT22;6119;52.372;8.990;2024-02-26T05:06:21;4.70;99.90
12111;DHT22;6119;52.372;8.990;2024-02-26T05:09:09;4.80;99.90
12111;DHT22;6119;52.372;8.990;2024-02-26T05:11:56;4.80;99.90
12111;DHT22;6119;52.372;8.990;2024-02-26T05:14:43;4.70;99.90
12111;DHT22;6119;52.372;8.990;2024-02-26T05:17:30;4.70;99.90
12111;DHT22;6119;52.372;8.990;2024-02-26T05:20:16;4.70;99.90
12111;DHT22;6119;52.372;8.990;2024-02-26T05:23:03;4.70;99.90
12111;DHT22;6119;52.372;8.990;2024-02-26T05:25:51;4.60;99.90
12111;DHT22;6119;52.372;8.990;2024-02-26T05:28:38;4.70;99.90
12111;DHT22;6119;52.372;8.990;2024-02-26T05:31:25;4.60;99.90
12111;DHT22;6119;52.372;8.990;2024-02-26T05:34:11;4.60;99.90
12111;DHT22;6119;52.372;8.990;2024-02-26T05:36:58;4.60;99.90
12111;DHT22;6119;52.372;8.990;2024-02-26T05:39:45;4.60;99.90
12111;DHT22;6119;52.372;8.990;2024-02-26T05:42:33;4.60;99.90
12111;DHT22;6119;52.372;8.990;2024-02-26T05:45:20;4.60;99.90
12111;DHT22;6119;52.372;8.990;2024-02-26T05:48:07;4.70;99.90
12111;DHT22;6119;52.372;8.990;2024-02-26T05:50:54;4.70;99.90
12111;DHT22;6119;52.372;8.990;2024-02-26T05:53:42;4.80;99.90
12111;DHT22;6119;52.372;8.990;2024-02-26T05:56:28;4.70;99.90
12111;DHT22;6119;52.372;8.990;2024-02-26T05:59:16;4.70;99.90
12111;DHT22;6119;52.372;8.990;2024-02-26T06:02:03;4.70;99.90
12111;DHT22;6119;52.372;8.990;2024-02-26T06:04:50;4.70;99.90
12111;DHT22;6119;52.372;8.990;2024-02-26T06:07:36;4.70;99.90
12111;DHT22;6119;52.372;8.990;2024-02-26T06:10:23;4.70;99.90
12111;DHT22;6119;52.372;8.990;2024-02-26T06:13:10;4.70;99.90
12111;DHT22;6119;52.372;8.990;2024-02-26T06:15:58;4.60;99.90
12111;DHT22;6119;52.372;8.990;2024-02-26T06:18:45;4.70;99.90
12111;DHT22;6119;52.372;8.990;2024-02-26T06:21:32;4.70;99.90
12111;DHT22;6119;52.372;8.990;2024-02-26T06:24:19;4.70;99.90
12111;DHT22;6119;52.372;8.990;2024-02-26T06:27:06;4.70;99.90
12111;DHT22;6119;52.372;8.990;2024-02-26T06:29:53;4.70;99.90
12111;DHT22;6119;52.372;8.990;2024-02-26T06:32:43;4.70;99.90
12111;DHT22;6119;52.372;8.990;2024-02-26T06:35:30;4.70;99.90
12111;DHT22;6119;52.372;8.990;2024-02-26T06:38:17;4.70;99.90
12111;DHT22;6119;52.372;8.990;2024-02-26T06:41:03;4.80;99.90
12111;DHT22;6119;52.372;8.990;2024-02-26T06:43:50;4.80;99.90
12111;DHT22;6119;52.372;8.990;2024-02-26T06:46:37;4.90;99.90
12111;DHT22;6119;52.372;8.990;2024-02-26T06:49:25;4.90;99.90
12111;DHT22;6119;52.372;8.990;2024-02-26T06:52:12;4.80;99.90
12111;DHT22;6119;52.372;8.990;2024-02-26T06:54:59;4.90;99.90
12111;DHT22;6119;52.372;8.990;2024-02-26T06:57:45;4.90;99.90
12111;DHT22;6119;52.372;8.990;2024-02-26T07:00:32;4.90;99.90
12111;DHT22;6119;52.372;8.990;2024-02-26T07:03:19;5.90;99.90
12111;DHT22;6119;52.372;8.990;2024-02-26T07:06:10;4.90;99.90
12111;DHT22;6119;52.372;8.990;2024-02-26T07:08:58;4.90;99.90
12111;DHT22;6119;52.372;8.990;2024-02-26T07:11:45;4.90;99.90
12111;DHT22;6119;52.372;8.990;2024-02-26T07:14:31;4.90;99.90
12111;DHT22;6119;52.372;8.990;2024-02-26T07:17:19;4.90;99.90
12111;DHT22;6119;52.372;8.990;2024-02-26T07:20:07;5.00;99.90
12111;DHT22;6119;52.372;8.990;2024-02-26T07:22:56;5.00;99.90
12111;DHT22;6119;52.372;8.990;2024-02-26T07:25:43;5.00;99.90
12111;DHT22;6119;52.372;8.990;2024-02-26T07:28:33;5.00;99.90
12111;DHT22;6119;52.372;8.990;2024-02-26T07:31:19;5.00;99.90
12111;DHT22;6119;52.372;8.990;2024-02-26T07:34:06;5.10;99.90
12111;DHT22;6119;52.372;8.990;2024-02-26T07:36:54;5.10;99.90
12111;DHT22;6119;52.372;8.990;2024-02-26T07:39:42;5.10;99.90
12111;DHT22;6119;52.372;8.990;2024-02-26T07:42:28;5.20;99.90
12111;DHT22;6119;52.372;8.990;2024-02-26T07:45:16;5.10;99.90
12111;DHT22;6119;52.372;8.990;2024-02-26T07:48:06;5.10;99.90
12111;DHT22;6119;52.372;8.990;2024-02-26T07:50:53;5.10;99.90
12111;DHT22;6119;52.372;8.990;2024-02-26T07:53:40;5.10;99.90
12111;DHT22;6119;52.372;8.990;2024-02-26T07:56:28;5.10;99.90
12111;DHT22;6119;52.372;8.990;2024-02-26T07:59:14;5.10;99.90
12111;DHT22;6119;52.372;8.990;2024-02-26T08:02:01;5.10;99.90
12111;DHT22;6119;52.372;8.990;2024-02-26T08:04:48;5.20;99.90
12111;DHT22;6119;52.372;8.990;2024-02-26T08:07:35;5.10;99.90
12111;DHT22;6119;52.372;8.990;2024-02-26T08:10:21;5.20;99.90
12111;DHT22;6119;52.372;8.990;2024-02-26T08:13:09;5.30;99.90
12111;DHT22;6119;52.372;8.990;2024-02-26T08:15:56;5.30;99.90
12111;DHT22;6119;52.372;8.990;2024-02-26T08:18:42;5.30;99.90
12111;DHT22;6119;52.372;8.990;2024-02-26T08:21:30;5.30;99.90
12111;DHT22;6119;52.372;8.990;2024-02-26T08:24:17;5.30;99.90
12111;DHT22;6119;52.372;8.990;2024-02-26T08:27:04;5.40;99.90
12111;DHT22;6119;52.372;8.990;2024-02-26T08:29:53;5.30;99.90
12111;DHT22;6119;52.372;8.990;2024-02-26T08:32:40;5.40;99.90
12111;DHT22;6119;52.372;8.990;2024-02-26T08:35:26;6.70;99.90
12111;DHT22;6119;52.372;8.990;2024-02-26T08:38:13;5.40;99.90
12111;DHT22;6119;52.372;8.990;2024-02-26T08:41:01;5.50;99.90
12111;DHT22;6119;52.372;8.990;2024-02-26T08:43:48;5.50;99.90
12111;DHT22;6119;52.372;8.990;2024-02-26T08:46:36;5.60;99.90
12111;DHT22;6119;52.372;8.990;2024-02-26T08:49:22;5.60;99.90
12111;DHT22;6119;52.372;8.990;2024-02-26T08:52:09;5.60;99.90
12111;DHT22;6119;52.372;8.990;2024-02-26T08:54:56;5.60;99.90
12111;DHT22;6119;52.372;8.990;2024-02-26T08:57:43;5.70;99.90
12111;DHT22;6119;52.372;8.990;2024-02-26T09:00:30;5.60;99.90
12111;DHT22;6119;52.372;8.990;2024-02-26T09:03:18;5.60;99.90
12111;DHT22;6119;52.372;8.990;2024-02-26T09:06:05;5.70;99.90
12111;DHT22;6119;52.372;8.990;2024-02-26T09:08:52;5.70;99.90
12111;DHT22;6119;52.372;8.990;2024-02-26T09:11:40;5.80;99.90
12111;DHT22;6119;52.372;8.990;2024-02-26T09:14:27;5.80;99.90
12111;DHT22;6119;52.372;8.990;2024-02-26T09:17:14;5.80;99.90
12111;DHT22;6119;52.372;8.990;2024-02-26T09:20:02;5.80;99.90
12111;DHT22;6119;52.372;8.990;2024-02-26T09:22:49;5.90;99.90
12111;DHT22;6119;52.372;8.990;2024-02-26T09:25:39;5.80;99.90
12111;DHT22;6119;52.372;8.990;2024-02-26T09:28:25;5.90;99.90
12111;DHT22;6119;52.372;8.990;2024-02-26T09:31:12;6.00;99.90
12111;DHT22;6119;52.372;8.990;2024-02-26T09:34:01;5.90;99.90
12111;DHT22;6119;52.372;8.990;2024-02-26T09:36:49;5.90;99.90
12111;DHT22;6119;52.372;8.990;2024-02-26T09:39:36;6.10;99.90
12111;DHT22;6119;52.372;8.990;2024-02-26T09:42:25;6.10;99.90
12111;DHT22;6119;52.372;8.990;2024-02-26T09:45:17;6.10;99.90
12111;DHT22;6119;52.372;8.990;2024-02-26T09:48:05;6.10;99.90
12111;DHT22;6119;52.372;8.990;2024-02-26T09:50:55;6.20;99.90
12111;DHT22;6119;52.372;8.990;2024-02-26T09:53:44;6.20;99.90
12111;DHT22;6119;52.372;8.990;2024-02-26T09:56:31;6.20;99.90
12111;DHT22;6119;52.372;8.990;2024-02-26T09:59:18;6.30;99.90
12111;DHT22;6119;52.372;8.990;2024-02-26T10:02:06;6.20;99.90
12111;DHT22;6119;52.372;8.990;2024-02-26T10:04:55;6.20;99.90
12111;DHT22;6119;52.372;8.990;2024-02-26T10:07:44;6.30;99.90
12111;DHT22;6119;52.372;8.990;2024-02-26T10:10:33;6.30;99.90
12111;DHT22;6119;52.372;8.990;2024-02-26T10:13:19;6.40;99.90
12111;DHT22;6119;52.372;8.990;2024-02-26T10:16:07;6.50;99.90
12111;DHT22;6119;52.372;8.990;2024-02-26T10:18:54;6.60;99.90
12111;DHT22;6119;52.372;8.990;2024-02-26T10:21:44;6.70;99.90
12111;DHT22;6119;52.372;8.990;2024-02-26T10:24:31;6.70;99.90
12111;DHT22;6119;52.372;8.990;2024-02-26T10:27:22;6.80;99.90
12111;DHT22;6119;52.372;8.990;2024-02-26T10:30:19;6.80;99.90
12111;DHT22;6119;52.372;8.990;2024-02-26T10:33:07;6.90;99.90
12111;DHT22;6119;52.372;8.990;2024-02-26T10:35:54;6.90;99.90
12111;DHT22;6119;52.372;8.990;2024-02-26T10:38:41;6.90;99.90
12111;DHT22;6119;52.372;8.990;2024-02-26T10:41:28;7.00;99.90
12111;DHT22;6119;52.372;8.990;2024-02-26T10:44:16;7.10;99.90
12111;DHT22;6119;52.372;8.990;2024-02-26T10:47:05;7.10;99.90
12111;DHT22;6119;52.372;8.990;2024-02-26T10:49:52;7.10;99.90
12111;DHT22;6119;52.372;8.990;2024-02-26T10:52:40;7.10;99.90
12111;DHT22;6119;52.372;8.990;2024-02-26T10:55:28;7.20;99.90
12111;DHT22;6119;52.372;8.990;2024-02-26T10:58:16;7.30;99.90
12111;DHT22;6119;52.372;8.990;2024-02-26T11:01:05;7.30;99.90
12111;DHT22;6119;52.372;8.990;2024-02-26T11:03:53;7.40;99.90
12111;DHT22;6119;52.372;8.990;2024-02-26T11:06:40;7.40;99.90
12111;DHT22;6119;52.372;8.990;2024-02-26T11:09:28;7.40;99.90
12111;DHT22;6119;52.372;8.990;2024-02-26T11:12:15;7.50;99.90
12111;DHT22;6119;52.372;8.990;2024-02-26T11:15:03;7.60;99.90
12111;DHT22;6119;52.372;8.990;2024-02-26T11:17:52;7.70;99.90
12111;DHT22;6119;52.372;8.990;2024-02-26T11:20:40;7.80;99.90
12111;DHT22;6119;52.372;8.990;2024-02-26T11:23:28;7.70;99.90
12111;DHT22;6119;52.372;8.990;2024-02-26T11:26:16;7.80;99.90
12111;DHT22;6119;52.372;8.990;2024-02-26T11:29:04;7.80;99.90
12111;DHT22;6119;52.372;8.990;2024-02-26T11:31:52;7.90;99.90
12111;DHT22;6119;52.372;8.990;2024-02-26T11:34:41;8.00;99.90
12111;DHT22;6119;52.372;8.990;2024-02-26T11:37:29;8.00;99.90
12111;DHT22;6119;52.372;8.990;2024-02-26T11:40:20;8.10;99.90
12111;DHT22;6119;52.372;8.990;2024-02-26T11:43:08;8.10;99.90
12111;DHT22;6119;52.372;8.990;2024-02-26T11:45:55;8.10;99.90
12111;DHT22;6119;52.372;8.990;2024-02-26T11:48:45;8.10;99.90
12111;DHT22;6119;52.372;8.990;2024-02-26T11:51:34;8.10;99.90
12111;DHT22;6119;52.372;8.990;2024-02-26T11:57:41;8.20;99.90
12111;DHT22;6119;52.372;8.990;2024-02-26T12:00:27;8.20;99.90
12111;DHT22;6119;52.372;8.990;2024-02-26T12:03:17;8.20;99.90
12111;DHT22;6119;52.372;8.990;2024-02-26T12:06:05;8.30;99.90
12111;DHT22;6119;52.372;8.990;2024-02-26T12:08:54;8.20;99.90
12111;DHT22;6119;52.372;8.990;2024-02-26T12:11:42;8.20;99.90
12111;DHT22;6119;52.372;8.990;2024-02-26T12:14:29;8.20;99.90
12111;DHT22;6119;52.372;8.990;2024-02-26T12:17:19;8.30;99.90
12111;DHT22;6119;52.372;8.990;2024-02-26T12:20:10;8.30;99.90
12111;DHT22;6119;52.372;8.990;2024-02-26T12:22:58;8.40;99.90
12111;DHT22;6119;52.372;8.990;2024-02-26T12:25:46;8.50;99.90
12111;DHT22;6119;52.372;8.990;2024-02-26T12:28:34;8.50;99.90
12111;DHT22;6119;52.372;8.990;2024-02-26T12:31:20;8.50;99.90
12111;DHT22;6119;52.372;8.990;2024-02-26T12:34:07;8.60;99.90
12111;DHT22;6119;52.372;8.990;2024-02-26T12:36:57;8.60;99.90
12111;DHT22;6119;52.372;8.990;2024-02-26T12:39:43;8.70;99.90
12111;DHT22;6119;52.372;8.990;2024-02-26T12:42:32;8.60;99.90
12111;DHT22;6119;52.372;8.990;2024-02-26T12:45:25;8.60;99.90
12111;DHT22;6119;52.372;8.990;2024-02-26T12:48:13;8.70;99.90
12111;DHT22;6119;52.372;8.990;2024-02-26T12:51:00;8.70;99.90
12111;DHT22;6119;52.372;8.990;2024-02-26T12:53:47;8.80;99.90
12111;DHT22;6119;52.372;8.990;2024-02-26T12:56:35;8.80;99.90
12111;DHT22;6119;52.372;8.990;2024-02-26T12:59:24;9.00;99.90
12111;DHT22;6119;52.372;8.990;2024-02-26T13:02:11;9.20;99.90
12111;DHT22;6119;52.372;8.990;2024-02-26T13:04:58;9.20;99.90
12111;DHT22;6119;52.372;8.990;2024-02-26T13:07:47;9.10;99.90
12111;DHT22;6119;52.372;8.990;2024-02-26T13:10:34;9.20;99.90
12111;DHT22;6119;52.372;8.990;2024-02-26T13:13:22;9.10;99.90
12111;DHT22;6119;52.372;8.990;2024-02-26T13:16:14;9.10;99.90
12111;DHT22;6119;52.372;8.990;2024-02-26T13:19:08;9.20;99.90
12111;DHT22;6119;52.372;8.990;2024-02-26T13:21:55;9.30;99.90
12111;DHT22;6119;52.372;8.990;2024-02-26T13:24:42;9.20;99.90
12111;DHT22;6119;52.372;8.990;2024-02-26T13:27:29;9.20;99.90
12111;DHT22;6119;52.372;8.990;2024-02-26T13:30:16;9.20;99.90
12111;DHT22;6119;52.372;8.990;2024-02-26T13:33:09;9.20;99.90
12111;DHT22;6119;52.372;8.990;2024-02-26T13:35:57;9.20;99.90
12111;DHT22;6119;52.372;8.990;2024-02-26T13:38:51;9.10;99.90
12111;DHT22;6119;52.372;8.990;2024-02-26T13:41:38;9.30;99.90
12111;DHT22;6119;52.372;8.990;2024-02-26T13:44:27;9.30;99.90
12111;DHT22;6119;52.372;8.990;2024-02-26T13:47:14;9.30;99.90
12111;DHT22;6119;52.372;8.990;2024-02-26T13:50:03;9.30;99.90
12111;DHT22;6119;52.372;8.990;2024-02-26T13:52:49;9.40;99.90
12111;DHT22;6119;52.372;8.990;2024-02-26T13:55:40;9.40;99.90
12111;DHT22;6119;52.372;8.990;2024-02-26T13:58:28;9.50;99.90
12111;DHT22;6119;52.372;8.990;2024-02-26T14:01:14;9.50;99.90
12111;DHT22;6119;52.372;8.990;2024-02-26T14:04:01;9.50;99.90
12111;DHT22;6119;52.372;8.990;2024-02-26T14:06:51;9.50;99.90
12111;DHT22;6119;52.372;8.990;2024-02-26T14:09:38;9.60;99.90
12111;DHT22;6119;52.372;8.990;2024-02-26T14:12:34;9.60;99.90
12111;DHT22;6119;52.372;8.990;2024-02-26T14:15:22;9.60;99.90
12111;DHT22;6119;52.372;8.990;2024-02-26T14:18:10;9.60;99.90
12111;DHT22;6119;52.372;8.990;2024-02-26T14:20:57;9.70;99.90
12111;DHT22;6119;52.372;8.990;2024-02-26T14:23:45;9.70;99.90
12111;DHT22;6119;52.372;8.990;2024-02-26T14:26:32;9.70;99.90
12111;DHT22;6119;52.372;8.990;2024-02-26T14:29:19;9.60;99.90
12111;DHT22;6119;52.372;8.990;2024-02-26T14:32:05;9.60;99.90
12111;DHT22;6119;52.372;8.990;2024-02-26T14:34:52;9.50;99.90
12111;DHT22;6119;52.372;8.990;2024-02-26T14:37:40;9.50;99.90
12111;DHT22;6119;52.372;8.990;2024-02-26T14:40:30;9.50;99.90
12111;DHT22;6119;52.372;8.990;2024-02-26T14:43:17;9.50;99.90
12111;DHT22;6119;52.372;8.990;2024-02-26T14:46:04;9.50;99.90
12111;DHT22;6119;52.372;8.990;2024-02-26T14:48:51;9.50;99.90
12111;DHT22;6119;52.372;8.990;2024-02-26T14:51:38;9.50;99.90
12111;DHT22;6119;52.372;8.990;2024-02-26T14:54:24;9.50;99.90
12111;DHT22;6119;52.372;8.990;2024-02-26T14:57:13;9.50;99.90
12111;DHT22;6119;52.372;8.990;2024-02-26T15:00:00;9.40;99.90
12111;DHT22;6119;52.372;8.990;2024-02-26T15:02:47;9.40;99.90
12111;DHT22;6119;52.372;8.990;2024-02-26T15:05:33;9.40;99.90
12111;DHT22;6119;52.372;8.990;2024-02-26T15:08:20;9.40;99.90
12111;DHT22;6119;52.372;8.990;2024-02-26T15:11:06;9.40;99.90
12111;DHT22;6119;52.372;8.990;2024-02-26T15:13:55;9.40;99.90
12111;DHT22;6119;52.372;8.990;2024-02-26T15:16:41;9.40;99.90
12111;DHT22;6119;52.372;8.990;2024-02-26T15:19:28;9.30;99.90
12111;DHT22;6119;52.372;8.990;2024-02-26T15:22:15;9.30;99.90
12111;DHT22;6119;52.372;8.990;2024-02-26T15:25:02;9.30;99.90
12111;DHT22;6119;52.372;8.990;2024-02-26T15:27:49;9.30;99.90
12111;DHT22;6119;52.372;8.990;2024-02-26T15:30:38;9.30;99.90
12111;DHT22;6119;52.372;8.990;2024-02-26T15:33:25;9.30;99.90
12111;DHT22;6119;52.372;8.990;2024-02-26T15:36:12;9.30;99.90
12111;DHT22;6119;52.372;8.990;2024-02-26T15:38:59;9.90;99.90
12111;DHT22;6119;52.372;8.990;2024-02-26T15:41:45;9.30;99.90
12111;DHT22;6119;52.372;8.990;2024-02-26T15:44:32;9.30;99.90
12111;DHT22;6119;52.372;8.990;2024-02-26T15:47:20;9.30;99.90
12111;DHT22;6119;52.372;8.990;2024-02-26T15:50:07;9.20;99.90
12111;DHT22;6119;52.372;8.990;2024-02-26T15:52:56;8.00;99.90
12111;DHT22;6119;52.372;8.990;2024-02-26T15:55:43;9.30;99.90
12111;DHT22;6119;52.372;8.990;2024-02-26T15:58:30;9.20;99.90
12111;DHT22;6119;52.372;8.990;2024-02-26T16:01:17;9.30;99.90
12111;DHT22;6119;52.372;8.990;2024-02-26T16:04:11;9.20;99.90
12111;DHT22;6119;52.372;8.990;2024-02-26T16:07:01;9.20;99.90
12111;DHT22;6119;52.372;8.990;2024-02-26T16:09:52;9.20;99.90
12111;DHT22;6119;52.372;8.990;2024-02-26T16:12:41;9.20;99.90
12111;DHT22;6119;52.372;8.990;2024-02-26T16:15:29;9.10;99.90
12111;DHT22;6119;52.372;8.990;2024-02-26T16:18:17;9.10;99.90
12111;DHT22;6119;52.372;8.990;2024-02-26T16:21:05;9.20;99.90
12111;DHT22;6119;52.372;8.990;2024-02-26T16:23:52;9.20;99.90
12111;DHT22;6119;52.372;8.990;2024-02-26T16:26:39;9.10;99.90
12111;DHT22;6119;52.372;8.990;2024-02-26T16:29:26;9.10;99.90
12111;DHT22;6119;52.372;8.990;2024-02-26T16:32:13;9.20;99.90
12111;DHT22;6119;52.372;8.990;2024-02-26T16:35:00;9.10;99.90
12111;DHT22;6119;52.372;8.990;2024-02-26T16:37:49;9.00;99.90
12111;DHT22;6119;52.372;8.990;2024-02-26T16:40:36;9.10;99.90
12111;DHT22;6119;52.372;8.990;2024-02-26T16:43:23;9.10;99.90
12111;DHT22;6119;52.372;8.990;2024-02-26T16:46:10;9.10;99.90
12111;DHT22;6119;52.372;8.990;2024-02-26T16:48:57;9.00;99.90
12111;DHT22;6119;52.372;8.990;2024-02-26T16:51:45;9.00;99.90
12111;DHT22;6119;52.372;8.990;2024-02-26T16:54:33;9.00;99.90
12111;DHT22;6119;52.372;8.990;2024-02-26T16:57:20;9.00;99.90
12111;DHT22;6119;52.372;8.990;2024-02-26T17:00:08;9.00;99.90
12111;DHT22;6119;52.372;8.990;2024-02-26T17:02:58;9.00;99.90
12111;DHT22;6119;52.372;8.990;2024-02-26T17:05:46;9.00;99.90
12111;DHT22;6119;52.372;8.990;2024-02-26T17:08:33;9.00;99.90
12111;DHT22;6119;52.372;8.990;2024-02-26T17:11:22;9.00;99.90
12111;DHT22;6119;52.372;8.990;2024-02-26T17:14:11;9.00;99.90
12111;DHT22;6119;52.372;8.990;2024-02-26T17:16:58;9.00;99.90
12111;DHT22;6119;52.372;8.990;2024-02-26T17:19:45;9.00;99.90
12111;DHT22;6119;52.372;8.990;2024-02-26T17:22:32;9.00;99.90
12111;DHT22;6119;52.372;8.990;2024-02-26T17:25:18;9.00;99.90
12111;DHT22;6119;52.372;8.990;2024-02-26T17:28:06;8.90;99.90
12111;DHT22;6119;52.372;8.990;2024-02-26T17:30:55;8.90;99.90
12111;DHT22;6119;52.372;8.990;2024-02-26T17:33:43;8.90;99.90
12111;DHT22;6119;52.372;8.990;2024-02-26T17:36:30;8.90;99.90
12111;DHT22;6119;52.372;8.990;2024-02-26T17:39:18;8.80;99.90
12111;DHT22;6119;52.372;8.990;2024-02-26T17:42:04;8.80;99.90
12111;DHT22;6119;52.372;8.990;2024-02-26T17:44:52;8.80;99.90
12111;DHT22;6119;52.372;8.990;2024-02-26T17:47:39;8.70;99.90
12111;DHT22;6119;52.372;8.990;2024-02-26T17:50:26;8.80;99.90
12111;DHT22;6119;52.372;8.990;2024-02-26T17:53:12;8.80;99.90
12111;DHT22;6119;52.372;8.990;2024-02-26T17:55:59;8.80;99.90
12111;DHT22;6119;52.372;8.990;2024-02-26T17:58:52;8.70;99.90
12111;DHT22;6119;52.372;8.990;2024-02-26T18:01:39;8.70;99.90
12111;DHT22;6119;52.372;8.990;2024-02-26T18:04:26;8.70;99.90
12111;DHT22;6119;52.372;8.990;2024-02-26T18:07:13;8.70;99.90
12111;DHT22;6119;52.372;8.990;2024-02-26T18:09:59;8.60;99.90
12111;DHT22;6119;52.372;8.990;2024-02-26T18:12:48;8.70;99.90
12111;DHT22;6119;52.372;8.990;2024-02-26T18:15:35;8.60;99.90
12111;DHT22;6119;52.372;8.990;2024-02-26T18:18:23;8.60;99.90